This is the latest recevied weather packets stored in our database for station/object HA9OZD-17. If no packets are shown the sender has not sent any weather packets the latest 10 day(s).
| Time | Temp. | Humidity | Pressure | Rain* | Wind** | Luminosity | Snow |
|---|---|---|---|---|---|---|---|
| 1778064373 | 19.44° C | 36% | 890 hPa | - | - | - | - |
| 1778060771 | 18.33° C | 38% | 890 hPa | - | - | - | - |
| 1778057170 | 17.78° C | 39% | 890 hPa | - | - | - | - |
| 1778053569 | 16.67° C | 40% | 890 hPa | - | - | - | - |
| 1778049968 | 15.56° C | 41% | 889 hPa | - | - | - | - |
| 1778046367 | 15° C | 44% | 889 hPa | - | - | - | - |
| 1778042765 | 14.44° C | 46% | 888 hPa | - | - | - | - |
| 1778039164 | 13.89° C | 46% | 888 hPa | - | - | - | - |
| 1778035568 | 13.89° C | 45% | 888 hPa | - | - | - | - |
| 1778035563 | 13.89° C | 45% | 888 hPa | - | - | - | - |
| 1778034621 | 14.44° C | 44% | 888 hPa | - | - | - | - |
| 1778031019 | 15° C | 42% | 888 hPa | - | - | - | - |
| 1778027418 | 15° C | 40% | 889 hPa | - | - | - | - |
| 1778023817 | 15.56° C | 38% | 889 hPa | - | - | - | - |
| 1778020216 | 16.11° C | 36% | 889 hPa | - | - | - | - |
| 1778016615 | 17.22° C | 33% | 890 hPa | - | - | - | - |
| 1778013013 | 17.78° C | 30% | 890 hPa | - | - | - | - |
| 1778009412 | 18.89° C | 28% | 890 hPa | - | - | - | - |
| 1778005811 | 20.56° C | 25% | 890 hPa | - | - | - | - |
| 1778002210 | 23.33° C | 21% | 890 hPa | - | - | - | - |
| 1777998609 | 25.56° C | 18% | 890 hPa | - | - | - | - |
| 1777995007 | 27.22° C | 16% | 890 hPa | - | - | - | - |
| 1777991406 | 29.44° C | 14% | 891 hPa | - | - | - | - |
| 1777987805 | 29.44° C | 14% | 891 hPa | - | - | - | - |
| 1777984204 | 32.78° C | 11% | 892 hPa | - | - | - | - |
* Rain since midnight (hover to see other rain measurements)
** Current wind speed in m/s (hover to see current wind gust speed)